sensor_id;sensor_type;location;lat;lon;timestamp;pressure;altitude;pressure_sealevel;temperature;humidity
43804;BME280;29430;52.924;-2.388;2023-02-07T00:01:29;101421.78;;;1.68;81.87
43804;BME280;29430;52.924;-2.388;2023-02-07T00:06:40;101411.19;;;1.55;81.42
43804;BME280;29430;52.924;-2.388;2023-02-07T00:11:32;101399.00;;;1.51;81.78
43804;BME280;29430;52.924;-2.388;2023-02-07T00:16:25;101400.09;;;1.48;82.43
43804;BME280;29430;52.924;-2.388;2023-02-07T00:21:20;101395.84;;;1.46;82.04
43804;BME280;29430;52.924;-2.388;2023-02-07T00:26:15;101382.06;;;1.39;82.03
43804;BME280;29430;52.924;-2.388;2023-02-07T00:31:10;101388.63;;;1.35;82.58
43804;BME280;29430;52.924;-2.388;2023-02-07T00:36:05;101392.50;;;1.31;83.09
43804;BME280;29430;52.924;-2.388;2023-02-07T00:40:57;101396.59;;;1.23;83.90
43804;BME280;29430;52.924;-2.388;2023-02-07T00:45:51;101400.25;;;1.22;84.55
43804;BME280;29430;52.924;-2.388;2023-02-07T00:50:43;101393.41;;;1.18;85.95
43804;BME280;29430;52.924;-2.388;2023-02-07T00:55:35;101389.25;;;1.14;86.03
43804;BME280;29430;52.924;-2.388;2023-02-07T01:00:27;101401.78;;;1.14;87.01
43804;BME280;29430;52.924;-2.388;2023-02-07T01:05:19;101405.94;;;1.18;86.95
43804;BME280;29430;52.924;-2.388;2023-02-07T01:10:11;101405.28;;;1.14;86.94
43804;BME280;29430;52.924;-2.388;2023-02-07T01:15:03;101408.84;;;1.15;87.36
43804;BME280;29430;52.924;-2.388;2023-02-07T01:19:58;101412.25;;;1.17;87.36
43804;BME280;29430;52.924;-2.388;2023-02-07T01:24:52;101406.44;;;1.23;87.85
43804;BME280;29430;52.924;-2.388;2023-02-07T01:29:47;101406.25;;;1.37;88.30
43804;BME280;29430;52.924;-2.388;2023-02-07T01:34:39;101402.53;;;1.51;89.20
43804;BME280;29430;52.924;-2.388;2023-02-07T01:39:32;101407.34;;;1.70;89.57
43804;BME280;29430;52.924;-2.388;2023-02-07T01:49:18;101402.41;;;2.00;90.92
43804;BME280;29430;52.924;-2.388;2023-02-07T01:54:11;101399.59;;;2.12;90.86
43804;BME280;29430;52.924;-2.388;2023-02-07T01:59:05;101401.31;;;2.25;91.63
43804;BME280;29430;52.924;-2.388;2023-02-07T02:03:58;101385.22;;;2.36;91.85
43804;BME280;29430;52.924;-2.388;2023-02-07T02:08:55;101375.72;;;2.43;92.32
43804;BME280;29430;52.924;-2.388;2023-02-07T02:40:03;101361.00;;;2.93;92.30
43804;BME280;29430;52.924;-2.388;2023-02-07T02:45:02;101369.75;;;2.95;91.92
43804;BME280;29430;52.924;-2.388;2023-02-07T02:49:59;101368.91;;;2.94;91.51
43804;BME280;29430;52.924;-2.388;2023-02-07T02:54:53;101376.69;;;2.97;91.45
43804;BME280;29430;52.924;-2.388;2023-02-07T03:15:22;101359.53;;;2.89;86.98
43804;BME280;29430;52.924;-2.388;2023-02-07T03:20:30;101335.22;;;2.80;86.91
43804;BME280;29430;52.924;-2.388;2023-02-07T03:25:25;101347.16;;;2.76;87.10
43804;BME280;29430;52.924;-2.388;2023-02-07T03:30:19;101347.41;;;2.73;87.33
43804;BME280;29430;52.924;-2.388;2023-02-07T03:35:22;101343.63;;;2.76;87.69
43804;BME280;29430;52.924;-2.388;2023-02-07T03:40:16;101334.88;;;2.74;87.32
43804;BME280;29430;52.924;-2.388;2023-02-07T03:45:14;101342.78;;;2.75;87.20
43804;BME280;29430;52.924;-2.388;2023-02-07T03:50:07;101328.66;;;2.73;86.74
43804;BME280;29430;52.924;-2.388;2023-02-07T03:54:59;101328.91;;;2.70;86.71
43804;BME280;29430;52.924;-2.388;2023-02-07T03:59:51;101329.91;;;2.69;86.31
43804;BME280;29430;52.924;-2.388;2023-02-07T04:04:43;101318.56;;;2.65;85.47
43804;BME280;29430;52.924;-2.388;2023-02-07T04:09:35;101318.25;;;2.59;84.94
43804;BME280;29430;52.924;-2.388;2023-02-07T04:14:27;101317.28;;;2.60;85.00
43804;BME280;29430;52.924;-2.388;2023-02-07T04:19:20;101328.94;;;2.59;84.44
43804;BME280;29430;52.924;-2.388;2023-02-07T04:24:12;101318.13;;;2.60;83.92
43804;BME280;29430;52.924;-2.388;2023-02-07T04:29:05;101317.53;;;2.57;84.37
43804;BME280;29430;52.924;-2.388;2023-02-07T04:33:56;101340.03;;;2.54;84.38
43804;BME280;29430;52.924;-2.388;2023-02-07T04:38:48;101322.13;;;2.55;85.68
43804;BME280;29430;52.924;-2.388;2023-02-07T04:43:44;101325.06;;;2.51;86.09
43804;BME280;29430;52.924;-2.388;2023-02-07T04:48:36;101331.03;;;2.55;87.95
43804;BME280;29430;52.924;-2.388;2023-02-07T04:53:28;101321.03;;;2.57;89.09
43804;BME280;29430;52.924;-2.388;2023-02-07T04:58:21;101334.44;;;2.57;90.46
43804;BME280;29430;52.924;-2.388;2023-02-07T05:03:13;101333.34;;;2.60;92.59
43804;BME280;29430;52.924;-2.388;2023-02-07T05:08:06;101331.38;;;2.62;93.14
43804;BME280;29430;52.924;-2.388;2023-02-07T05:12:58;101333.94;;;2.63;93.22
43804;BME280;29430;52.924;-2.388;2023-02-07T05:17:50;101331.38;;;2.62;92.98
43804;BME280;29430;52.924;-2.388;2023-02-07T05:22:42;101328.81;;;2.60;93.34
43804;BME280;29430;52.924;-2.388;2023-02-07T05:27:34;101324.56;;;2.58;93.46
43804;BME280;29430;52.924;-2.388;2023-02-07T05:32:26;101328.94;;;2.59;93.54
43804;BME280;29430;52.924;-2.388;2023-02-07T05:37:36;101321.28;;;2.54;93.38
43804;BME280;29430;52.924;-2.388;2023-02-07T05:42:30;101332.38;;;2.49;93.15
43804;BME280;29430;52.924;-2.388;2023-02-07T05:47:21;101331.66;;;2.47;94.11
43804;BME280;29430;52.924;-2.388;2023-02-07T05:52:13;101320.34;;;2.44;93.88
43804;BME280;29430;52.924;-2.388;2023-02-07T05:57:05;101330.44;;;2.40;93.67
43804;BME280;29430;52.924;-2.388;2023-02-07T06:01:57;101328.88;;;2.38;93.24
43804;BME280;29430;52.924;-2.388;2023-02-07T06:06:48;101332.16;;;2.30;92.71
43804;BME280;29430;52.924;-2.388;2023-02-07T06:11:40;101337.28;;;2.22;92.54
43804;BME280;29430;52.924;-2.388;2023-02-07T06:16:32;101339.75;;;2.13;93.00
43804;BME280;29430;52.924;-2.388;2023-02-07T06:21:24;101340.59;;;2.03;91.81
43804;BME280;29430;52.924;-2.388;2023-02-07T06:26:28;101346.69;;;1.93;93.15
43804;BME280;29430;52.924;-2.388;2023-02-07T06:31:19;101348.25;;;1.85;92.89
43804;BME280;29430;52.924;-2.388;2023-02-07T06:36:11;101358.47;;;1.79;93.25
43804;BME280;29430;52.924;-2.388;2023-02-07T06:41:03;101355.53;;;1.71;93.32
43804;BME280;29430;52.924;-2.388;2023-02-07T06:45:55;101364.25;;;1.62;93.41
43804;BME280;29430;52.924;-2.388;2023-02-07T06:50:50;101364.97;;;1.53;93.40
43804;BME280;29430;52.924;-2.388;2023-02-07T06:55:42;101363.75;;;1.46;93.06
43804;BME280;29430;52.924;-2.388;2023-02-07T07:00:33;101368.81;;;1.37;92.55
43804;BME280;29430;52.924;-2.388;2023-02-07T07:05:26;101375.72;;;1.29;92.83
43804;BME280;29430;52.924;-2.388;2023-02-07T07:10:18;101378.22;;;1.19;93.62
43804;BME280;29430;52.924;-2.388;2023-02-07T07:15:10;101384.69;;;1.16;94.24
43804;BME280;29430;52.924;-2.388;2023-02-07T07:20:01;101383.56;;;1.19;95.92
43804;BME280;29430;52.924;-2.388;2023-02-07T07:24:53;101375.31;;;1.22;97.46
43804;BME280;29430;52.924;-2.388;2023-02-07T07:29:45;101381.31;;;1.25;96.93
43804;BME280;29430;52.924;-2.388;2023-02-07T07:34:37;101375.84;;;1.27;98.02
43804;BME280;29430;52.924;-2.388;2023-02-07T07:39:29;101377.53;;;1.28;98.84
43804;BME280;29430;52.924;-2.388;2023-02-07T07:44:21;101389.09;;;1.29;98.80
43804;BME280;29430;52.924;-2.388;2023-02-07T07:49:13;101385.56;;;1.28;97.98
43804;BME280;29430;52.924;-2.388;2023-02-07T07:54:05;101373.91;;;1.29;98.44
43804;BME280;29430;52.924;-2.388;2023-02-07T07:58:56;101365.66;;;1.32;98.41
43804;BME280;29430;52.924;-2.388;2023-02-07T08:03:48;101362.97;;;1.32;97.17
43804;BME280;29430;52.924;-2.388;2023-02-07T08:08:40;101378.28;;;1.30;97.20
43804;BME280;29430;52.924;-2.388;2023-02-07T08:13:32;101384.13;;;1.35;98.79
43804;BME280;29430;52.924;-2.388;2023-02-07T08:18:24;101389.13;;;1.40;99.83
43804;BME280;29430;52.924;-2.388;2023-02-07T08:23:16;101404.59;;;1.48;100.00
43804;BME280;29430;52.924;-2.388;2023-02-07T08:28:08;101391.09;;;1.49;100.00
43804;BME280;29430;52.924;-2.388;2023-02-07T08:33:00;101406.31;;;1.60;100.00
43804;BME280;29430;52.924;-2.388;2023-02-07T08:37:53;101410.97;;;1.81;100.00
43804;BME280;29430;52.924;-2.388;2023-02-07T08:42:46;101409.81;;;2.07;100.00
43804;BME280;29430;52.924;-2.388;2023-02-07T08:47:38;101410.31;;;2.35;100.00
43804;BME280;29430;52.924;-2.388;2023-02-07T08:52:30;101414.66;;;2.59;100.00
43804;BME280;29430;52.924;-2.388;2023-02-07T08:57:21;101407.00;;;3.09;100.00
43804;BME280;29430;52.924;-2.388;2023-02-07T09:02:16;101420.25;;;3.75;98.82
43804;BME280;29430;52.924;-2.388;2023-02-07T09:07:09;101409.84;;;4.44;95.37
43804;BME280;29430;52.924;-2.388;2023-02-07T09:12:01;101421.44;;;5.05;93.68
43804;BME280;29430;52.924;-2.388;2023-02-07T09:16:53;101423.13;;;5.74;91.22
43804;BME280;29430;52.924;-2.388;2023-02-07T09:21:45;101423.56;;;6.36;87.37
43804;BME280;29430;52.924;-2.388;2023-02-07T09:26:37;101440.22;;;6.87;83.43
43804;BME280;29430;52.924;-2.388;2023-02-07T09:31:29;101427.53;;;7.33;82.73
43804;BME280;29430;52.924;-2.388;2023-02-07T09:36:25;101424.31;;;7.92;78.96
43804;BME280;29430;52.924;-2.388;2023-02-07T09:46:47;101423.84;;;8.92;74.73
43804;BME280;29430;52.924;-2.388;2023-02-07T09:51:41;101429.34;;;9.49;71.48
43804;BME280;29430;52.924;-2.388;2023-02-07T09:56:35;101430.19;;;9.99;70.19
43804;BME280;29430;52.924;-2.388;2023-02-07T10:01:37;101419.88;;;10.59;67.66
43804;BME280;29430;52.924;-2.388;2023-02-07T10:06:31;101412.00;;;11.04;65.01
43804;BME280;29430;52.924;-2.388;2023-02-07T10:11:34;101425.31;;;11.45;64.49
43804;BME280;29430;52.924;-2.388;2023-02-07T10:26:53;101434.44;;;12.43;58.94
43804;BME280;29430;52.924;-2.388;2023-02-07T10:31:51;101422.34;;;12.61;57.62
43804;BME280;29430;52.924;-2.388;2023-02-07T10:36:46;101445.31;;;12.88;57.87
43804;BME280;29430;52.924;-2.388;2023-02-07T10:41:40;101444.53;;;12.94;55.62
43804;BME280;29430;52.924;-2.388;2023-02-07T10:46:36;101432.13;;;13.06;55.74
43804;BME280;29430;52.924;-2.388;2023-02-07T10:51:38;101445.13;;;13.26;55.03
43804;BME280;29430;52.924;-2.388;2023-02-07T10:57:19;101437.91;;;13.33;54.14
43804;BME280;29430;52.924;-2.388;2023-02-07T11:01:52;101438.81;;;13.40;53.22
43804;BME280;29430;52.924;-2.388;2023-02-07T11:06:44;101434.53;;;13.53;52.92
43804;BME280;29430;52.924;-2.388;2023-02-07T11:11:37;101426.03;;;13.41;53.75
43804;BME280;29430;52.924;-2.388;2023-02-07T11:16:31;101429.97;;;13.38;53.34
43804;BME280;29430;52.924;-2.388;2023-02-07T11:21:42;101427.25;;;13.38;53.47
43804;BME280;29430;52.924;-2.388;2023-02-07T11:26:40;101417.47;;;13.44;53.68
43804;BME280;29430;52.924;-2.388;2023-02-07T11:31:39;101409.16;;;13.52;53.03
43804;BME280;29430;52.924;-2.388;2023-02-07T11:36:33;101410.69;;;13.61;52.60
43804;BME280;29430;52.924;-2.388;2023-02-07T11:41:27;101404.41;;;13.61;52.74
43804;BME280;29430;52.924;-2.388;2023-02-07T11:46:19;101387.47;;;13.66;52.15
43804;BME280;29430;52.924;-2.388;2023-02-07T11:51:14;101388.16;;;13.74;52.81
43804;BME280;29430;52.924;-2.388;2023-02-07T11:56:32;101393.00;;;13.79;52.69
43804;BME280;29430;52.924;-2.388;2023-02-07T12:01:28;101391.59;;;13.83;52.61
43804;BME280;29430;52.924;-2.388;2023-02-07T12:06:23;101389.69;;;13.84;53.12
43804;BME280;29430;52.924;-2.388;2023-02-07T12:11:23;101389.09;;;13.88;53.94
43804;BME280;29430;52.924;-2.388;2023-02-07T12:16:25;101388.69;;;13.91;52.74
43804;BME280;29430;52.924;-2.388;2023-02-07T12:21:27;101384.50;;;13.89;52.95
43804;BME280;29430;52.924;-2.388;2023-02-07T12:36:50;101373.28;;;13.77;53.31
43804;BME280;29430;52.924;-2.388;2023-02-07T12:46:55;101371.19;;;13.51;55.07
43804;BME280;29430;52.924;-2.388;2023-02-07T13:02:39;101358.19;;;13.10;56.43
43804;BME280;29430;52.924;-2.388;2023-02-07T13:07:49;101348.81;;;12.97;56.49
43804;BME280;29430;52.924;-2.388;2023-02-07T13:12:52;101350.88;;;12.74;56.68
43804;BME280;29430;52.924;-2.388;2023-02-07T13:17:55;101343.13;;;12.56;57.91
43804;BME280;29430;52.924;-2.388;2023-02-07T13:23:01;101334.81;;;12.42;57.96
43804;BME280;29430;52.924;-2.388;2023-02-07T13:27:57;101322.53;;;12.31;58.33
43804;BME280;29430;52.924;-2.388;2023-02-07T13:32:51;101314.63;;;12.22;57.62
43804;BME280;29430;52.924;-2.388;2023-02-07T13:43:07;101307.66;;;11.97;58.93
43804;BME280;29430;52.924;-2.388;2023-02-07T13:48:21;101305.72;;;11.83;60.00
43804;BME280;29430;52.924;-2.388;2023-02-07T13:53:37;101303.94;;;11.75;59.83
43804;BME280;29430;52.924;-2.388;2023-02-07T14:04:02;101312.03;;;11.45;60.82
43804;BME280;29430;52.924;-2.388;2023-02-07T14:09:16;101308.19;;;11.40;60.84
43804;BME280;29430;52.924;-2.388;2023-02-07T14:14:23;101314.91;;;11.29;61.21
43804;BME280;29430;52.924;-2.388;2023-02-07T14:19:54;101309.25;;;11.16;61.14
43804;BME280;29430;52.924;-2.388;2023-02-07T14:45:17;101293.25;;;10.98;62.12
43804;BME280;29430;52.924;-2.388;2023-02-07T14:50:17;101298.44;;;10.84;61.20
43804;BME280;29430;52.924;-2.388;2023-02-07T14:55:25;101291.63;;;10.65;62.40
43804;BME280;29430;52.924;-2.388;2023-02-07T15:05:28;101295.69;;;10.30;63.39
43804;BME280;29430;52.924;-2.388;2023-02-07T15:10:39;101299.97;;;10.24;64.19
43804;BME280;29430;52.924;-2.388;2023-02-07T15:15:48;101290.38;;;10.05;65.24
43804;BME280;29430;52.924;-2.388;2023-02-07T15:20:47;101286.88;;;9.88;65.57
43804;BME280;29430;52.924;-2.388;2023-02-07T15:25:42;101286.06;;;9.79;66.35
43804;BME280;29430;52.924;-2.388;2023-02-07T15:30:38;101287.94;;;9.71;66.06
43804;BME280;29430;52.924;-2.388;2023-02-07T15:35:36;101292.91;;;9.50;66.93
43804;BME280;29430;52.924;-2.388;2023-02-07T15:40:29;101288.34;;;9.43;68.02
43804;BME280;29430;52.924;-2.388;2023-02-07T15:45:26;101289.88;;;9.37;68.43
43804;BME280;29430;52.924;-2.388;2023-02-07T15:50:24;101291.06;;;9.35;68.44
43804;BME280;29430;52.924;-2.388;2023-02-07T15:55:21;101291.25;;;9.33;68.70
43804;BME280;29430;52.924;-2.388;2023-02-07T16:00:18;101288.88;;;9.30;68.93
43804;BME280;29430;52.924;-2.388;2023-02-07T16:05:20;101295.31;;;9.21;69.03
43804;BME280;29430;52.924;-2.388;2023-02-07T16:10:34;101290.75;;;9.13;69.51
43804;BME280;29430;52.924;-2.388;2023-02-07T16:15:29;101290.88;;;9.03;70.59
43804;BME280;29430;52.924;-2.388;2023-02-07T16:20:24;101291.56;;;8.97;70.60
43804;BME280;29430;52.924;-2.388;2023-02-07T16:25:22;101286.16;;;8.89;70.81
43804;BME280;29430;52.924;-2.388;2023-02-07T16:30:24;101292.41;;;8.81;71.60
43804;BME280;29430;52.924;-2.388;2023-02-07T16:35:25;101292.75;;;8.78;71.88
43804;BME280;29430;52.924;-2.388;2023-02-07T16:40:18;101275.81;;;8.68;72.36
43804;BME280;29430;52.924;-2.388;2023-02-07T16:45:21;101277.34;;;8.62;72.53
43804;BME280;29430;52.924;-2.388;2023-02-07T16:50:22;101284.59;;;8.62;72.48
43804;BME280;29430;52.924;-2.388;2023-02-07T16:55:19;101289.50;;;8.58;72.25
43804;BME280;29430;52.924;-2.388;2023-02-07T17:00:17;101298.44;;;8.58;72.82
43804;BME280;29430;52.924;-2.388;2023-02-07T17:05:09;101303.84;;;8.58;72.70
43804;BME280;29430;52.924;-2.388;2023-02-07T17:10:01;101313.16;;;8.56;72.44
43804;BME280;29430;52.924;-2.388;2023-02-07T17:14:53;101303.09;;;8.40;73.23
43804;BME280;29430;52.924;-2.388;2023-02-07T17:19:45;101321.50;;;8.28;73.31
43804;BME280;29430;52.924;-2.388;2023-02-07T17:24:40;101325.34;;;8.25;73.80
43804;BME280;29430;52.924;-2.388;2023-02-07T17:29:32;101328.88;;;8.18;73.75
43804;BME280;29430;52.924;-2.388;2023-02-07T17:34:24;101332.22;;;8.12;74.75
43804;BME280;29430;52.924;-2.388;2023-02-07T17:39:17;101323.06;;;8.04;74.86
43804;BME280;29430;52.924;-2.388;2023-02-07T17:44:09;101324.03;;;7.95;75.05
43804;BME280;29430;52.924;-2.388;2023-02-07T17:49:01;101313.34;;;7.85;75.17
43804;BME280;29430;52.924;-2.388;2023-02-07T17:53:54;101316.69;;;7.79;75.53
43804;BME280;29430;52.924;-2.388;2023-02-07T17:58:46;101333.53;;;7.73;76.11
43804;BME280;29430;52.924;-2.388;2023-02-07T18:03:38;101344.28;;;7.65;75.72
43804;BME280;29430;52.924;-2.388;2023-02-07T18:08:30;101338.81;;;7.57;76.41
43804;BME280;29430;52.924;-2.388;2023-02-07T18:13:21;101335.75;;;7.51;76.83
43804;BME280;29430;52.924;-2.388;2023-02-07T18:18:13;101336.69;;;7.42;76.74
43804;BME280;29430;52.924;-2.388;2023-02-07T18:23:06;101337.94;;;7.30;77.13
43804;BME280;29430;52.924;-2.388;2023-02-07T18:27:58;101338.56;;;7.24;77.71
43804;BME280;29430;52.924;-2.388;2023-02-07T18:32:52;101336.19;;;7.21;78.38
43804;BME280;29430;52.924;-2.388;2023-02-07T18:37:44;101340.03;;;7.18;78.90
43804;BME280;29430;52.924;-2.388;2023-02-07T18:42:35;101337.63;;;7.15;79.08
43804;BME280;29430;52.924;-2.388;2023-02-07T18:47:27;101329.31;;;7.08;78.99
43804;BME280;29430;52.924;-2.388;2023-02-07T18:52:19;101332.63;;;7.02;79.32
43804;BME280;29430;52.924;-2.388;2023-02-07T18:57:11;101322.31;;;6.97;79.77
43804;BME280;29430;52.924;-2.388;2023-02-07T19:02:03;101327.84;;;6.96;79.82
43804;BME280;29430;52.924;-2.388;2023-02-07T19:06:56;101330.03;;;6.92;80.08
43804;BME280;29430;52.924;-2.388;2023-02-07T19:11:50;101333.34;;;6.86;80.38
43804;BME280;29430;52.924;-2.388;2023-02-07T19:16:44;101331.78;;;6.84;80.43
43804;BME280;29430;52.924;-2.388;2023-02-07T19:21:36;101319.06;;;6.76;80.71
43804;BME280;29430;52.924;-2.388;2023-02-07T19:26:28;101324.09;;;6.71;81.04
43804;BME280;29430;52.924;-2.388;2023-02-07T19:31:20;101321.13;;;6.64;81.02
43804;BME280;29430;52.924;-2.388;2023-02-07T19:36:13;101322.44;;;6.60;81.04
43804;BME280;29430;52.924;-2.388;2023-02-07T19:41:06;101330.13;;;6.55;80.77
43804;BME280;29430;52.924;-2.388;2023-02-07T19:45:58;101333.03;;;6.43;80.76
43804;BME280;29430;52.924;-2.388;2023-02-07T19:51:02;101334.53;;;6.28;80.73
43804;BME280;29430;52.924;-2.388;2023-02-07T19:55:58;101342.38;;;6.21;81.25
43804;BME280;29430;52.924;-2.388;2023-02-07T20:00:52;101339.41;;;6.15;81.56
43804;BME280;29430;52.924;-2.388;2023-02-07T20:05:44;101341.75;;;6.00;82.01
43804;BME280;29430;52.924;-2.388;2023-02-07T20:10:42;101351.00;;;5.87;82.09
43804;BME280;29430;52.924;-2.388;2023-02-07T20:15:39;101344.03;;;5.85;83.67
43804;BME280;29430;52.924;-2.388;2023-02-07T20:20:31;101334.09;;;5.85;84.18
43804;BME280;29430;52.924;-2.388;2023-02-07T20:25:23;101331.41;;;5.85;84.90
43804;BME280;29430;52.924;-2.388;2023-02-07T20:30:14;101329.75;;;5.84;85.47
43804;BME280;29430;52.924;-2.388;2023-02-07T20:35:06;101326.19;;;5.84;85.82
43804;BME280;29430;52.924;-2.388;2023-02-07T20:39:58;101336.66;;;5.87;85.78
43804;BME280;29430;52.924;-2.388;2023-02-07T20:44:50;101342.91;;;5.87;86.33
43804;BME280;29430;52.924;-2.388;2023-02-07T20:49:42;101329.31;;;5.89;85.81
43804;BME280;29430;52.924;-2.388;2023-02-07T20:54:33;101324.06;;;5.87;85.75
43804;BME280;29430;52.924;-2.388;2023-02-07T20:59:28;101322.34;;;5.86;86.47
43804;BME280;29430;52.924;-2.388;2023-02-07T21:04:21;101313.72;;;5.83;86.16
43804;BME280;29430;52.924;-2.388;2023-02-07T21:09:13;101313.00;;;5.81;86.67
43804;BME280;29430;52.924;-2.388;2023-02-07T21:14:09;101306.94;;;5.79;87.38
43804;BME280;29430;52.924;-2.388;2023-02-07T21:19:01;101318.00;;;5.76;87.22
43804;BME280;29430;52.924;-2.388;2023-02-07T21:23:54;101309.22;;;5.73;87.89
43804;BME280;29430;52.924;-2.388;2023-02-07T21:28:45;101306.69;;;5.72;87.56
43804;BME280;29430;52.924;-2.388;2023-02-07T21:33:37;101306.09;;;5.68;86.66
43804;BME280;29430;52.924;-2.388;2023-02-07T21:38:29;101308.94;;;5.67;86.84
43804;BME280;29430;52.924;-2.388;2023-02-07T21:43:21;101314.31;;;5.67;86.35
43804;BME280;29430;52.924;-2.388;2023-02-07T21:48:13;101303.84;;;5.64;85.91
43804;BME280;29430;52.924;-2.388;2023-02-07T21:53:04;101296.94;;;5.61;86.09
43804;BME280;29430;52.924;-2.388;2023-02-07T21:57:56;101303.75;;;5.55;85.70
43804;BME280;29430;52.924;-2.388;2023-02-07T22:02:48;101301.09;;;5.46;85.62
43804;BME280;29430;52.924;-2.388;2023-02-07T22:07:40;101304.34;;;5.40;85.81
43804;BME280;29430;52.924;-2.388;2023-02-07T22:12:33;101298.41;;;5.36;85.85
43804;BME280;29430;52.924;-2.388;2023-02-07T22:17:24;101292.19;;;5.35;85.61
43804;BME280;29430;52.924;-2.388;2023-02-07T22:22:17;101288.22;;;5.30;85.96
43804;BME280;29430;52.924;-2.388;2023-02-07T22:27:09;101289.22;;;5.29;86.14
43804;BME280;29430;52.924;-2.388;2023-02-07T22:32:00;101272.69;;;5.24;86.16
43804;BME280;29430;52.924;-2.388;2023-02-07T22:36:52;101277.47;;;5.20;86.08
43804;BME280;29430;52.924;-2.388;2023-02-07T22:41:44;101281.91;;;5.11;86.05
43804;BME280;29430;52.924;-2.388;2023-02-07T22:46:37;101284.44;;;5.03;85.95
43804;BME280;29430;52.924;-2.388;2023-02-07T22:51:34;101273.13;;;4.99;86.15
43804;BME280;29430;52.924;-2.388;2023-02-07T22:56:27;101272.56;;;4.96;86.94
43804;BME280;29430;52.924;-2.388;2023-02-07T23:01:24;101277.81;;;4.97;87.67
43804;BME280;29430;52.924;-2.388;2023-02-07T23:06:17;101279.47;;;4.98;88.51
43804;BME280;29430;52.924;-2.388;2023-02-07T23:11:10;101279.47;;;4.98;88.27
43804;BME280;29430;52.924;-2.388;2023-02-07T23:16:03;101290.38;;;4.97;88.42
43804;BME280;29430;52.924;-2.388;2023-02-07T23:20:55;101284.72;;;4.90;88.76
43804;BME280;29430;52.924;-2.388;2023-02-07T23:25:47;101285.31;;;4.84;89.40
43804;BME280;29430;52.924;-2.388;2023-02-07T23:30:40;101277.94;;;4.76;89.48
43804;BME280;29430;52.924;-2.388;2023-02-07T23:35:33;101265.06;;;4.70;89.64
43804;BME280;29430;52.924;-2.388;2023-02-07T23:40:25;101270.16;;;4.63;90.34
43804;BME280;29430;52.924;-2.388;2023-02-07T23:45:17;101269.44;;;4.61;90.54
43804;BME280;29430;52.924;-2.388;2023-02-07T23:50:08;101266.34;;;4.56;90.14
43804;BME280;29430;52.924;-2.388;2023-02-07T23:55:00;101264.34;;;4.48;90.30
43804;BME280;29430;52.924;-2.388;2023-02-07T23:59:52;101242.56;;;4.42;90.77
